Data for 02/01/2010

Time Sea-Level Adjusted Pressure Absolute Pressure Temperature Relative Humidity Dew Point   
(mb) (inHg) (mb) (inHg) (C) (F) (%) (C) (F)
00:05 1012 29.88 841 24.83 -5.3 22.4 89 -6.9 19.6
00:10 1012 29.88 841 24.83 -5.4 22.3 89 -6.9 19.5
00:15 1012 29.88 841 24.83 -5.5 22.2 89 -6.9 19.5
00:20 1012 29.88 841 24.83 -5.5 22.1 90 -6.9 19.5
00:25 1012 29.88 841 24.83 -5.6 22 90 -6.9 19.6
00:30 1012 29.88 841 24.83 -5.5 22.1 91 -6.8 19.8
00:35 1012 29.88 841 24.83 -5.3 22.5 90 -6.7 20
00:40 1012 29.88 841 24.83 -5.1 22.7 89 -6.6 20.1
00:45 1012 29.88 841 24.83 -5.1 22.8 89 -6.7 20
00:50 1012 29.88 841 24.83 -5.4 22.3 90 -6.7 19.9
00:55 1012 29.88 841 24.83 -5.6 22 91 -6.8 19.7
01:00 1012 29.88 841 24.83 -5.6 21.9 92 -6.8 19.8
01:05 1012 29.88 841 24.83 -5.6 22 92 -6.7 20
01:10 1012 29.88 841 24.83 -5.5 22.1 92 -6.7 20
01:15 1012 29.88 841 24.83 -5.6 22 91 -6.8 19.8
01:20 1012 29.88 841 24.83 -5.6 21.9 92 -6.8 19.8
01:25 1012 29.88 841 24.83 -5.7 21.7 92 -6.8 19.7
01:30 1012 29.88 841 24.83 -5.7 21.8 92 -6.8 19.8
01:35 1012 29.88 841 24.83 -5.5 22.1 92 -6.6 20
01:40 1012 29.88 841 24.83 -5.4 22.4 91 -6.6 20.1
01:45 1012 29.88 841 24.83 -5.4 22.3 91 -6.7 19.9
01:50 1012 29.88 841 24.83 -5.5 22.1 91 -6.7 19.9
01:55 1012 29.88 841 24.83 -5.4 22.2 91 -6.7 20
02:00 1012 29.88 842 24.86 -5.4 22.3 91 -6.6 20.2
02:05 1012 29.88 842 24.86 -5.3 22.5 92 -6.4 20.5
02:10 1012 29.88 842 24.86 -5.1 22.8 92 -6.3 20.7
02:15 1012 29.88 842 24.86 -5 22.9 91 -6.3 20.7
02:20 1012 29.88 842 24.86 -5.2 22.7 91 -6.4 20.4
02:25 1012 29.88 842 24.86 -5.3 22.5 92 -6.4 20.5
02:30 1013 29.91 842 24.86 -5.2 22.6 93 -6.3 20.7
02:35 1013 29.91 842 24.86 -5.1 22.9 93 -6.1 21.1
02:40 1013 29.91 842 24.86 -5 23 92 -6.1 21
02:45 1013 29.91 842 24.86 -5 23.1 92 -6.1 21
02:50 1013 29.91 842 24.86 -4.9 23.1 92 -6.1 21
02:55 1013 29.91 842 24.86 -4.9 23.2 92 -6.1 21.1
03:00 1013 29.91 842 24.86 -4.8 23.3 92 -6 21.2
03:05 1013 29.91 842 24.86 -4.9 23.2 92 -5.9 21.3
03:10 1013 29.91 842 24.86 -4.8 23.4 93 -5.8 21.5
03:15 1013 29.91 842 24.86 -4.8 23.3 93 -5.8 21.5
03:20 1013 29.91 842 24.86 -4.9 23.2 94 -5.7 21.7
03:25 1013 29.91 842 24.86 -4.9 23.2 94 -5.7 21.8
03:30 1013 29.91 842 24.86 -4.8 23.4 94 -5.6 21.9
03:35 1013 29.91 842 24.86 -4.7 23.5 94 -5.6 22
03:40 1013 29.91 842 24.86 -4.6 23.6 93 -5.6 22
03:45 1013 29.91 842 24.86 -4.6 23.7 94 -5.5 22.1
03:50 1013 29.91 842 24.86 -4.6 23.7 93 -5.5 22
03:55 1013 29.91 842 24.86 -4.7 23.6 94 -5.5 22.1
04:00 1013 29.91 842 24.86 -4.5 23.9 94 -5.4 22.3
04:05 1013 29.91 842 24.86 -4.4 24.1 93 -5.3 22.4
04:10 1013 29.91 842 24.86 -4.2 24.4 93 -5.2 22.6
04:15 1013 29.91 842 24.86 -4.2 24.5 94 -5 23
04:20 1013 29.91 842 24.86 -3.9 25 93 -4.9 23.2
04:25 1013 29.91 842 24.86 -3.8 25.1 93 -4.8 23.3
04:30 1013 29.91 842 24.86 -3.7 25.3 92 -4.9 23.2
04:35 1013 29.91 842 24.86 -3.8 25.2 91 -5 23
04:40 1013 29.91 842 24.86 -3.9 24.9 91 -5.2 22.7
04:45 1013 29.91 842 24.86 -4.1 24.7 92 -5.2 22.6
04:50 1013 29.91 842 24.86 -4 24.7 93 -5.1 22.9
04:55 1013 29.91 842 24.86 -3.9 25 92 -4.9 23.1
05:00 1013 29.91 842 24.86 -3.8 25.2 93 -4.8 23.4
05:05 1013 29.91 842 24.86 -3.7 25.4 93 -4.6 23.6
05:10 1013 29.91 842 24.86 -3.6 25.5 92 -4.7 23.5
05:15 1013 29.91 842 24.86 -3.6 25.6 93 -4.6 23.7
05:20 1013 29.91 842 24.86 -3.6 25.5 92 -4.7 23.6
05:25 1013 29.91 842 24.86 -3.7 25.4 93 -4.7 23.6
05:30 1013 29.91 842 24.86 -3.5 25.7 94 -4.4 24.1
05:35 1013 29.91 842 24.86 -3.1 26.4 94 -4 24.9
05:40 1013 29.91 842 24.86 -3.2 26.3 94 -3.9 24.9
05:45 1013 29.91 842 24.86 -2.9 26.7 93 -3.9 25
05:50 1013 29.91 842 24.86 -3.2 26.3 93 -4.1 24.6
05:55 1013 29.91 843 24.89 -3.2 26.2 92 -4.4 24.2
06:00 1013 29.91 843 24.89 -3.4 25.9 93 -4.4 24.1
06:05 1013 29.91 843 24.89 -3.3 26 93 -4.3 24.3
06:10 1013 29.91 843 24.89 -3.4 25.9 93 -4.3 24.2
06:15 1013 29.91 843 24.89 -3.3 26 94 -4.2 24.5
06:20 1013 29.91 843 24.89 -3.3 26 94 -4.1 24.6
06:25 1014 29.94 843 24.89 -3.3 26 94 -4.1 24.6
06:30 1014 29.94 843 24.89 -3.5 25.7 95 -4.1 24.6
06:35 1014 29.94 843 24.89 -3.4 25.9 96 -4 24.8
06:40 1014 29.94 843 24.89 -3.3 26.1 95 -3.9 24.9
06:45 1014 29.94 843 24.89 -3.2 26.2 95 -3.9 25
06:50 1014 29.94 843 24.89 -3.2 26.2 95 -4 24.9
06:55 1014 29.94 843 24.89 -3.3 26.1 95 -4 24.8
07:00 1014 29.94 843 24.89 -3.2 26.2 95 -4 24.9
07:05 1014 29.94 843 24.89 -3.1 26.4 95 -3.8 25.1
07:10 1014 29.94 843 24.89 -3 26.7 94 -3.8 25.2
07:15 1014 29.94 843 24.89 -2.9 26.8 94 -3.7 25.3
07:20 1014 29.94 843 24.89 -2.8 26.9 94 -3.7 25.4
07:25 1014 29.94 843 24.89 -2.8 27 94 -3.6 25.5
07:30 1014 29.94 843 24.89 -2.6 27.3 93 -3.6 25.5
07:35 1014 29.94 843 24.89 -2.6 27.2 93 -3.6 25.5
07:40 1014 29.94 843 24.89 -2.6 27.3 93 -3.6 25.5
07:45 1014 29.94 843 24.89 -2.4 27.6 92 -3.6 25.5
07:50 1014 29.94 843 24.89 -2.3 27.9 91 -3.5 25.7
07:55 1014 29.94 843 24.89 -2.1 28.3 90 -3.5 25.7
08:00 1014 29.94 843 24.89 -2.1 28.2 91 -3.4 25.8
08:05 1014 29.94 843 24.89 -2.2 28 90 -3.6 25.6
08:10 1014 29.94 843 24.89 -2.4 27.8 91 -3.6 25.5
08:15 1014 29.94 843 24.89 -2.6 27.4 92 -3.6 25.5
08:20 1014 29.94 843 24.89 -2.8 26.9 94 -3.6 25.5
08:25 1014 29.94 843 24.89 -2.9 26.8 95 -3.6 25.5
08:30 1014 29.94 843 24.89 -2.9 26.9 96 -3.4 25.8
08:35 1014 29.94 843 24.89 -2.8 27 96 -3.4 25.9
08:40 1014 29.94 843 24.89 -2.8 27 96 -3.3 26
08:45 1014 29.94 843 24.89 -2.7 27.1 96 -3.3 26
08:50 1014 29.94 843 24.89 -2.7 27.2 95 -3.3 26
08:55 1014 29.94 843 24.89 -2.6 27.4 95 -3.3 26
09:00 1014 29.94 843 24.89 -2.5 27.5 94 -3.4 26
09:05 1014 29.94 844 24.92 -2.4 27.6 93 -3.4 25.9
09:10 1014 29.94 844 24.92 -2.5 27.5 93 -3.5 25.8
09:15 1014 29.94 844 24.92 -2.4 27.6 93 -3.4 25.8
09:20 1014 29.94 844 24.92 -2.3 27.9 92 -3.5 25.8
09:25 1014 29.94 844 24.92 -2.2 28 92 -3.4 25.9
09:30 1014 29.94 844 24.92 -1.9 28.7 90 -3.3 26.1
09:35 1014 29.94 844 24.92 -1.6 29.2 88 -3.3 26.1
09:40 1014 29.94 844 24.92 -1.4 29.4 87 -3.3 26
09:45 1015 29.97 844 24.92 -1.3 29.7 86 -3.3 26.1
09:50 1015 29.97 844 24.92 -1 30.3 84 -3.3 26.1
09:55 1015 29.97 844 24.92 -0.7 30.8 83 -3.2 26.2
10:00 1015 29.97 844 24.92 -0.2 31.6 79 -3.4 25.8
10:05 1015 29.97 844 24.92 0.1 32.2 79 -3.2 26.3
10:10 1015 29.97 844 24.92 0.5 32.9 75 -3.4 26
10:15 1015 29.97 844 24.92 0.4 32.8 77 -3.1 26.5
10:20 1015 29.97 844 24.92 0.3 32.5 78 -3.2 26.3
10:25 1015 29.97 844 24.92 0.5 32.8 74 -3.6 25.5
10:30 1015 29.97 844 24.92 0.6 33 73 -3.7 25.4
10:35 1015 29.97 844 24.92 0.8 33.4 72 -3.7 25.4
10:40 1015 29.97 844 24.92 1 33.9 71 -3.6 25.5
10:45 1015 29.97 844 24.92 1.4 34.5 69 -3.7 25.3
10:50 1015 29.97 844 24.92 1.5 34.7 66 -4.1 24.6
10:55 1015 29.97 844 24.92 1.3 34.3 67 -4.1 24.6
11:00 1015 29.97 844 24.92 0.9 33.6 67 -4.5 23.9
11:05 1015 29.97 844 24.92 1.2 34.2 70 -3.6 25.4
11:10 1015 29.97 844 24.92 1.1 34 68 -4.1 24.6
11:15 1015 29.97 844 24.92 0.9 33.6 70 -4 24.8
11:20 1015 29.97 844 24.92 1 33.8 69 -4.1 24.6
11:25 1015 29.97 844 24.92 1.1 34 70 -3.7 25.3
11:30 1015 29.97 844 24.92 1.3 34.4 68 -4 24.8
11:35 1015 29.97 844 24.92 1.6 34.9 67 -3.9 25
11:40 1015 29.97 844 24.92 1.9 35.5 64 -4 24.7
11:45 1015 29.97 844 24.92 2.1 35.7 63 -4.3 24.2
11:50 1015 29.97 844 24.92 2.3 36.2 64 -3.9 25
11:55 1015 29.97 844 24.92 2.3 36.1 63 -4 24.8
12:00 1015 29.97 844 24.92 3 37.3 61 -3.9 25
12:05 1015 29.97 844 24.92 3.4 38.1 58 -4.1 24.7
12:10 1015 29.97 844 24.92 3.9 39 56 -4.2 24.5
12:15 1015 29.97 844 24.92 3.8 38.9 56 -4.1 24.7
12:20 1015 29.97 844 24.92 4 39.2 56 -3.9 25
12:25 1015 29.97 844 24.92 2.8 37.1 61 -3.9 25
12:30 1015 29.97 844 24.92 2.4 36.3 61 -4.4 24.1
12:35 1015 29.97 844 24.92 2.8 37 59 -4.4 24
12:40 1015 29.97 844 24.92 2.7 36.8 61 -4 24.8
12:45 1015 29.97 844 24.92 3.1 37.7 58 -4.2 24.4
12:50 1015 29.97 844 24.92 3.2 37.7 59 -4.2 24.5
12:55 1015 29.97 844 24.92 3.6 38.4 59 -3.7 25.3
13:00 1014 29.94 844 24.92 4.4 39.9 56 -3.5 25.6
13:05 1014 29.94 844 24.92 4 39.1 55 -4.2 24.5
13:10 1014 29.94 844 24.92 3.9 39 52 -5.1 22.8
13:15 1014 29.94 844 24.92 3.8 38.9 53 -5 23
13:20 1014 29.94 844 24.92 3.6 38.4 52 -5.4 22.2
13:25 1014 29.94 843 24.89 3.9 39.1 49 -5.7 21.8
13:30 1014 29.94 843 24.89 4.8 40.7 47 -5.6 21.9
13:35 1014 29.94 843 24.89 4.7 40.4 50 -4.8 23.4
13:40 1014 29.94 843 24.89 4.1 39.5 49 -5.6 21.8
13:45 1014 29.94 843 24.89 4.2 39.5 50 -5.2 22.6
13:50 1014 29.94 843 24.89 4.6 40.3 47 -5.8 21.5
13:55 1014 29.94 843 24.89 4.3 39.8 51 -5 23
14:00 1014 29.94 843 24.89 3 37.4 54 -5.3 22.4
14:05 1014 29.94 843 24.89 3.2 37.8 51 -5.9 21.3
14:10 1014 29.94 843 24.89 3.8 38.8 50 -5.8 21.6
14:15 1014 29.94 843 24.89 4.1 39.3 48 -6 21.1
14:20 1014 29.94 843 24.89 3.4 38.1 53 -5.2 22.6
14:25 1014 29.94 843 24.89 2.9 37.2 54 -5.5 22.1
14:30 1014 29.94 843 24.89 2.9 37.2 53 -5.8 21.5
14:35 1014 29.94 843 24.89 3.1 37.6 52 -5.7 21.7
14:40 1014 29.94 843 24.89 3.2 37.7 52 -5.8 21.6
14:45 1014 29.94 843 24.89 2.9 37.2 54 -5.6 21.9
14:50 1014 29.94 843 24.89 2.6 36.7 53 -6.1 21
14:55 1014 29.94 843 24.89 2.8 37 53 -5.9 21.4
15:00 1014 29.94 843 24.89 2.7 36.8 55 -5.5 22
15:05 1014 29.94 843 24.89 2.6 36.7 53 -6 21.3
15:10 1014 29.94 843 24.89 3 37.4 49 -6.7 19.9
15:15 1014 29.94 843 24.89 3.2 37.8 51 -6.1 21.1
15:20 1014 29.94 843 24.89 2.6 36.7 54 -5.8 21.5
15:25 1014 29.94 843 24.89 2.2 35.9 54 -6.2 20.8
15:30 1014 29.94 843 24.89 2.6 36.7 53 -6 21.1
15:35 1014 29.94 843 24.89 2.9 37.2 52 -6.1 21
15:40 1014 29.94 843 24.89 2.7 36.8 54 -5.6 21.8
15:45 1014 29.94 843 24.89 2.6 36.6 52 -6.3 20.7
15:50 1014 29.94 843 24.89 2.9 37.3 51 -6.2 20.9
15:55 1014 29.94 843 24.89 2.4 36.3 55 -5.9 21.4
16:00 1014 29.94 844 24.92 2.3 36.1 55 -5.8 21.6
16:05 1014 29.94 844 24.92 2.5 36.5 54 -6 21.3
16:10 1014 29.94 844 24.92 2.7 36.8 56 -5.2 22.6
16:15 1014 29.94 844 24.92 2.4 36.3 60 -4.5 23.9
16:20 1014 29.94 844 24.92 1.5 34.7 62 -5.1 22.9
16:25 1014 29.94 844 24.92 1.5 34.8 61 -5.2 22.6
16:30 1014 29.94 844 24.92 1.2 34.1 62 -5.2 22.6
16:35 1014 29.94 844 24.92 0.5 32.9 64 -5.5 22.2
16:40 1014 29.94 844 24.92 0.4 32.8 63 -5.9 21.4
16:45 1014 29.94 844 24.92 0.5 33 62 -6 21.2
16:50 1014 29.94 844 24.92 0.7 33.3 62 -5.7 21.7
16:55 1014 29.94 844 24.92 0.9 33.7 63 -5.4 22.3
17:00 1014 29.94 844 24.92 1.1 34 62 -5.3 22.4
17:05 1014 29.94 844 24.92 1.2 34.2 61 -5.6 21.9
17:10 1014 29.94 844 24.92 1.4 34.6 60 -5.5 22.1
17:15 1014 29.94 844 24.92 1.6 35 59 -5.4 22.2
17:20 1014 29.94 844 24.92 1.5 34.6 59 -5.8 21.6
17:25 1014 29.94 844 24.92 1.1 34 61 -5.6 21.8
17:30 1014 29.94 844 24.92 0.9 33.6 63 -5.4 22.2
17:35 1014 29.94 844 24.92 0.8 33.5 63 -5.5 22.1
17:40 1014 29.94 844 24.92 0.7 33.3 65 -5.2 22.6
17:45 1014 29.94 844 24.92 0.8 33.5 64 -5.3 22.5
17:50 1014 29.94 844 24.92 0.9 33.6 65 -5 22.9
17:55 1014 29.94 844 24.92 0.8 33.4 66 -4.8 23.4
18:00 1014 29.94 844 24.92 0.4 32.7 69 -4.6 23.6
18:05 1014 29.94 844 24.92 0.4 32.8 67 -5 23
18:10 1014 29.94 844 24.92 0.4 32.7 63 -5.9 21.4
18:15 1014 29.94 844 24.92 0.3 32.5 69 -4.7 23.6
18:20 1014 29.94 844 24.92 -0.1 31.8 69 -5.1 22.8
18:25 1014 29.94 844 24.92 -0.2 31.6 71 -4.9 23.3
18:30 1014 29.94 844 24.92 -0.4 31.3 70 -5.1 22.8
18:35 1014 29.94 844 24.92 -0.5 31.1 69 -5.4 22.2
18:40 1014 29.94 844 24.92 -0.5 31 72 -4.9 23.1
18:45 1014 29.94 844 24.92 -0.9 30.4 71 -5.5 22.1
18:50 1014 29.94 844 24.92 -0.9 30.4 69 -5.9 21.4
18:55 1014 29.94 844 24.92 -0.6 30.9 68 -5.9 21.5
19:00 1014 29.94 844 24.92 -0.5 31.2 68 -5.8 21.6
19:05 1014 29.94 844 24.92 -0.5 31 66 -6.1 21.1
19:10 1014 29.94 843 24.89 -0.5 31.2 68 -5.7 21.7
19:15 1014 29.94 843 24.89 -0.8 30.6 71 -5.5 22.1
19:20 1014 29.94 843 24.89 -0.9 30.4 71 -5.5 22.1
19:25 1014 29.94 843 24.89 -1 30.2 72 -5.4 22.3
19:30 1014 29.94 843 24.89 -1.1 30 72 -5.5 22.1
19:35 1014 29.94 843 24.89 -0.9 30.3 69 -5.8 21.5
19:40 1014 29.94 843 24.89 -1 30.1 71 -5.7 21.8
19:45 1014 29.94 843 24.89 -1.1 30.1 71 -5.8 21.6
19:50 1014 29.94 843 24.89 -1.1 30 71 -5.7 21.7
19:55 1014 29.94 843 24.89 -1.4 29.5 74 -5.4 22.3
20:00 1014 29.94 843 24.89 -1.8 28.7 74 -6 21.3
20:05 1014 29.94 843 24.89 -1.7 28.9 73 -5.8 21.5
20:10 1014 29.94 843 24.89 -1.7 28.9 72 -6 21.1
20:15 1014 29.94 843 24.89 -1.7 28.9 73 -5.9 21.3
20:20 1014 29.94 843 24.89 -1.9 28.6 75 -5.7 21.7
20:25 1014 29.94 843 24.89 -2 28.5 76 -5.7 21.7
20:30 1014 29.94 843 24.89 -2 28.4 76 -5.7 21.8
20:35 1014 29.94 843 24.89 -2.3 28 76 -5.9 21.3
20:40 1014 29.94 843 24.89 -2.1 28.2 76 -5.8 21.5
20:45 1014 29.94 843 24.89 -1.5 29.2 72 -6 21.2
20:50 1014 29.94 843 24.89 -1.4 29.5 70 -6.1 21
20:55 1014 29.94 843 24.89 -1.2 29.8 70 -5.9 21.3
21:00 1014 29.94 843 24.89 -1.2 29.9 70 -6 21.2
21:05 1014 29.94 843 24.89 -1.5 29.3 72 -5.8 21.5
21:10 1014 29.94 843 24.89 -2 28.5 74 -6 21.2
21:15 1014 29.94 843 24.89 -2.1 28.2 74 -6.2 20.9
21:20 1014 29.94 843 24.89 -2 28.3 72 -6.4 20.6
21:25 1014 29.94 843 24.89 -1.7 29 71 -6.2 20.8
21:30 1014 29.94 843 24.89 -2.2 28 75 -6.2 20.9
21:35 1014 29.94 843 24.89 -2.2 28.1 72 -6.6 20.1
21:40 1014 29.94 843 24.89 -2.2 28.1 73 -6.4 20.6
21:45 1014 29.94 843 24.89 -2.6 27.4 73 -6.7 20
21:50 1014 29.94 843 24.89 -2.6 27.3 74 -6.6 20
21:55 1014 29.94 843 24.89 -2.9 26.7 75 -6.8 19.8
22:00 1014 29.94 843 24.89 -3 26.6 75 -6.9 19.6
22:05 1014 29.94 843 24.89 -3 26.6 74 -6.9 19.6
22:10 1014 29.94 843 24.89 -3 26.5 73 -7.2 19.1
22:15 1014 29.94 843 24.89 -3.1 26.5 71 -7.6 18.2
22:20 1014 29.94 843 24.89 -3 26.6 69 -7.8 17.9
22:25 1014 29.94 843 24.89 -3 26.6 70 -7.8 17.9
22:30 1014 29.94 843 24.89 -3 26.6 68 -8.1 17.3
22:35 1014 29.94 843 24.89 -3.1 26.5 69 -8 17.6
22:40 1014 29.94 843 24.89 -3.6 25.6 71 -8.1 17.3
22:45 1014 29.94 843 24.89 -3.9 25 71 -8.4 16.9
22:50 1014 29.94 843 24.89 -4.2 24.4 73 -8.3 17
22:55 1014 29.94 843 24.89 -4.4 24 74 -8.4 16.9
23:00 1014 29.94 843 24.89 -4.6 23.7 75 -8.5 16.8
23:05 1014 29.94 843 24.89 -4.8 23.3 74 -8.7 16.3
23:10 1014 29.94 843 24.89 -4.9 23.1 75 -8.8 16.2
23:15 1014 29.94 843 24.89 -5 23.1 75 -8.7 16.4
23:20 1014 29.94 843 24.89 -4.7 23.5 74 -8.7 16.4
23:25 1014 29.94 843 24.89 -4.5 23.9 74 -8.5 16.8
23:30 1014 29.94 843 24.89 -4.5 24 73 -8.6 16.6
23:35 1014 29.94 843 24.89 -4.5 23.9 72 -8.7 16.3
23:40 1014 29.94 843 24.89 -4.6 23.7 73 -8.8 16.2
23:45 1014 29.94 843 24.89 -4.8 23.3 73 -8.9 15.9
23:50 1014 29.94 843 24.89 -4.8 23.3 72 -9.2 15.5
23:55 1014 29.94 843 24.89 -4.7 23.5 71 -9.3 15.3
24:00 1014 29.94 843 24.89 -4.8 23.4 71 -9.3 15.3